Weather at Terendak Camp Airstrip

Public forecast

Using degrees Celsius for public forecast. Weather courtesy of forecast.io.

Closest aviation weather report (METAR) to Terendak Camp Airstrip

Closest report is Malacca International Airport, 9.9 nm (18.3 km) E.

2024/06/18 06:00 (retrieved 18 minutes ago)

WMKM 180600Z 27004KT 190V350 9999 FEW017CB SCT028 31/24 Q1010

Closest aviation forecast (TAF) to Terendak Camp Airstrip

Closest forecast is Malacca International Airport, 9.9 nm (18.3 km) E.

2024/06/18 06:00 (retrieved 18 minutes ago)

TAF WMKM 180500Z 1806/1906 24005KT 9000 FEW017CB